Country
Station

 

Weather  for  Auckland Airport  -  New Zealand    New Zealand

  
11 °C (52 °F)
    
 
 

Current METAR for Auckland Airport is :

NZAA 231000Z AUTO 28005KT 9999 -RA FEW021/// BKN048/// OVC060/// 11/10 Q1018 REDZ TEMPO 7000 SHRA

 

This is a report for Auckland Airport - New Zealand.
 
The report was made 27 minutes ago, at 10:00 UTC .
The wind was blowing at a speed of 2.6 meters per second (5.8 miles per hour) from west (280°).
 
The temperature was 11 °C (52 °F), with a dew-point at 10 °C (50 °F).
The atmospheric pressure was 1018 hPa (30.06 inHg).
The relative humidity was 93.5%.
 
The overall visibility was greater than 10 kilometers (6.2 miles).
 
Currently light rain.

 
 
 
 

Country :   A   B   C   D   E   F   G   H   I   J   K   L   M   N   O   P   Q   R   S   T   U   V   W   Y   Z

 

Site Info  |  Disclaimer  |  Credits  |  Privacy
Contact us  |  Add to favorites
© 2013-2018 METARs - All rights reserved